sensor_id;sensor_type;location;lat;lon;timestamp;pressure;altitude;pressure_sealevel;temperature;humidity
19508;BME280;40157;42.566;27.526;2023-03-31T00:01:09;101220.91;;;6.73;57.99
19508;BME280;40157;42.566;27.526;2023-03-31T00:03:09;101224.31;;;6.72;58.04
19508;BME280;40157;42.566;27.526;2023-03-31T00:05:21;101205.78;;;6.64;57.76
19508;BME280;40157;42.566;27.526;2023-03-31T00:07:24;101220.66;;;6.67;57.41
19508;BME280;40157;42.566;27.526;2023-03-31T00:09:24;101205.41;;;6.55;57.08
19508;BME280;40157;42.566;27.526;2023-03-31T00:11:25;101210.63;;;6.55;57.01
19508;BME280;40157;42.566;27.526;2023-03-31T00:13:26;101218.03;;;6.67;56.68
19508;BME280;40157;42.566;27.526;2023-03-31T00:15:27;101214.31;;;6.60;56.63
19508;BME280;40157;42.566;27.526;2023-03-31T00:17:28;101206.41;;;6.59;56.33
19508;BME280;40157;42.566;27.526;2023-03-31T00:19:32;101196.00;;;6.59;56.50
19508;BME280;40157;42.566;27.526;2023-03-31T00:21:32;101204.75;;;6.61;56.37
19508;BME280;40157;42.566;27.526;2023-03-31T00:23:33;101161.41;;;6.40;56.66
19508;BME280;40157;42.566;27.526;2023-03-31T00:25:33;101135.44;;;6.21;56.44
19508;BME280;40157;42.566;27.526;2023-03-31T00:27:34;101173.16;;;6.52;56.26
19508;BME280;40157;42.566;27.526;2023-03-31T00:29:34;101198.94;;;6.66;56.24
19508;BME280;40157;42.566;27.526;2023-03-31T00:31:35;101178.63;;;6.58;56.28
19508;BME280;40157;42.566;27.526;2023-03-31T00:33:35;101184.75;;;6.60;56.20
19508;BME280;40157;42.566;27.526;2023-03-31T00:35:36;101168.06;;;6.55;56.08
19508;BME280;40157;42.566;27.526;2023-03-31T00:37:38;101168.88;;;6.54;55.49
19508;BME280;40157;42.566;27.526;2023-03-31T00:39:38;101187.59;;;6.66;55.23
19508;BME280;40157;42.566;27.526;2023-03-31T00:41:39;101181.31;;;6.61;55.30
19508;BME280;40157;42.566;27.526;2023-03-31T00:43:40;101176.88;;;6.58;54.74
19508;BME280;40157;42.566;27.526;2023-03-31T00:45:41;101164.75;;;6.59;54.43
19508;BME280;40157;42.566;27.526;2023-03-31T00:47:48;101173.63;;;6.64;54.68
19508;BME280;40157;42.566;27.526;2023-03-31T00:49:53;101162.00;;;6.56;54.55
19508;BME280;40157;42.566;27.526;2023-03-31T00:52:00;101168.91;;;6.76;54.86
19508;BME280;40157;42.566;27.526;2023-03-31T00:54:05;101152.78;;;6.64;55.20
19508;BME280;40157;42.566;27.526;2023-03-31T00:56:12;101167.13;;;6.75;55.54
19508;BME280;40157;42.566;27.526;2023-03-31T00:58:14;101168.06;;;6.77;55.33
19508;BME280;40157;42.566;27.526;2023-03-31T01:00:19;101148.75;;;6.72;55.56
19508;BME280;40157;42.566;27.526;2023-03-31T01:02:21;101164.81;;;6.83;55.56
19508;BME280;40157;42.566;27.526;2023-03-31T01:04:24;101148.16;;;6.79;55.63
19508;BME280;40157;42.566;27.526;2023-03-31T01:06:25;101148.16;;;6.79;55.74
19508;BME280;40157;42.566;27.526;2023-03-31T01:08:31;101104.88;;;6.60;56.14
19508;BME280;40157;42.566;27.526;2023-03-31T01:10:33;101125.31;;;6.72;56.05
19508;BME280;40157;42.566;27.526;2023-03-31T01:12:43;101116.19;;;6.61;55.91
19508;BME280;40157;42.566;27.526;2023-03-31T01:14:45;101144.72;;;6.80;55.99
19508;BME280;40157;42.566;27.526;2023-03-31T01:16:45;101141.19;;;6.78;55.94
19508;BME280;40157;42.566;27.526;2023-03-31T01:18:46;101151.84;;;6.84;56.00
19508;BME280;40157;42.566;27.526;2023-03-31T01:27:51;101127.22;;;6.76;56.31
19508;BME280;40157;42.566;27.526;2023-03-31T01:35:32;101143.56;;;6.95;56.44
19508;BME280;40157;42.566;27.526;2023-03-31T01:42:43;101145.66;;;7.05;55.14
19508;BME280;40157;42.566;27.526;2023-03-31T01:45:26;101145.53;;;7.02;54.22
19508;BME280;40157;42.566;27.526;2023-03-31T01:47:36;101134.19;;;7.00;53.04
19508;BME280;40157;42.566;27.526;2023-03-31T01:52:02;101132.75;;;7.08;52.70
19508;BME280;40157;42.566;27.526;2023-03-31T01:56:09;101115.25;;;7.06;52.47
19508;BME280;40157;42.566;27.526;2023-03-31T01:58:43;101112.59;;;7.04;52.94
19508;BME280;40157;42.566;27.526;2023-03-31T02:00:59;101088.63;;;6.90;53.33
19508;BME280;40157;42.566;27.526;2023-03-31T02:03:11;101098.19;;;6.90;53.74
19508;BME280;40157;42.566;27.526;2023-03-31T02:05:25;101093.66;;;6.85;54.30
19508;BME280;40157;42.566;27.526;2023-03-31T02:09:56;101092.38;;;6.74;54.40
19508;BME280;40157;42.566;27.526;2023-03-31T02:11:58;101103.59;;;6.72;54.75
19508;BME280;40157;42.566;27.526;2023-03-31T02:14:00;101055.81;;;6.48;55.28
19508;BME280;40157;42.566;27.526;2023-03-31T02:16:07;101069.34;;;6.62;55.53
19508;BME280;40157;42.566;27.526;2023-03-31T02:18:13;101075.47;;;6.63;56.11
19508;BME280;40157;42.566;27.526;2023-03-31T02:20:19;101078.84;;;6.60;57.08
19508;BME280;40157;42.566;27.526;2023-03-31T02:22:22;101063.75;;;6.52;57.27
19508;BME280;40157;42.566;27.526;2023-03-31T02:24:25;101056.44;;;6.41;57.88
19508;BME280;40157;42.566;27.526;2023-03-31T02:26:30;101073.06;;;6.45;58.95
19508;BME280;40157;42.566;27.526;2023-03-31T02:28:33;101077.59;;;6.51;59.59
19508;BME280;40157;42.566;27.526;2023-03-31T02:32:53;101052.97;;;6.42;60.86
19508;BME280;40157;42.566;27.526;2023-03-31T02:34:54;101033.69;;;6.37;61.08
19508;BME280;40157;42.566;27.526;2023-03-31T02:36:55;101039.94;;;6.42;61.18
19508;BME280;40157;42.566;27.526;2023-03-31T02:39:08;101030.47;;;6.44;61.17
19508;BME280;40157;42.566;27.526;2023-03-31T02:41:11;101045.34;;;6.47;60.66
19508;BME280;40157;42.566;27.526;2023-03-31T02:43:11;101035.69;;;6.44;59.94
19508;BME280;40157;42.566;27.526;2023-03-31T02:47:34;101025.88;;;6.37;57.70
19508;BME280;40157;42.566;27.526;2023-03-31T02:49:35;101023.16;;;6.34;57.49
19508;BME280;40157;42.566;27.526;2023-03-31T03:01:42;101028.13;;;6.28;56.90
19508;BME280;40157;42.566;27.526;2023-03-31T03:04:23;101025.97;;;6.18;56.95
19508;BME280;40157;42.566;27.526;2023-03-31T03:09:06;101026.28;;;6.25;56.92
19508;BME280;40157;42.566;27.526;2023-03-31T03:13:23;101020.16;;;6.23;55.32
19508;BME280;40157;42.566;27.526;2023-03-31T03:15:46;101014.16;;;6.26;54.40
19508;BME280;40157;42.566;27.526;2023-03-31T03:17:47;100995.28;;;6.09;54.16
19508;BME280;40157;42.566;27.526;2023-03-31T03:19:51;100998.81;;;6.11;53.79
19508;BME280;40157;42.566;27.526;2023-03-31T03:21:52;101007.59;;;6.13;53.69
19508;BME280;40157;42.566;27.526;2023-03-31T03:23:53;101015.91;;;6.04;53.80
19508;BME280;40157;42.566;27.526;2023-03-31T03:25:53;100997.53;;;5.79;54.13
19508;BME280;40157;42.566;27.526;2023-03-31T03:27:55;100992.63;;;5.64;54.81
19508;BME280;40157;42.566;27.526;2023-03-31T03:29:55;101008.53;;;5.71;54.85
19508;BME280;40157;42.566;27.526;2023-03-31T03:31:55;101008.00;;;5.80;55.29
19508;BME280;40157;42.566;27.526;2023-03-31T03:33:56;101009.56;;;5.75;55.59
19508;BME280;40157;42.566;27.526;2023-03-31T03:35:56;100986.69;;;5.68;56.48
19508;BME280;40157;42.566;27.526;2023-03-31T03:37:57;101001.69;;;5.73;56.63
19508;BME280;40157;42.566;27.526;2023-03-31T03:39:57;100932.47;;;5.33;57.03
19508;BME280;40157;42.566;27.526;2023-03-31T03:41:58;100998.81;;;5.67;57.61
19508;BME280;40157;42.566;27.526;2023-03-31T03:43:59;101002.34;;;5.47;58.61
19508;BME280;40157;42.566;27.526;2023-03-31T03:46:00;100991.41;;;5.34;59.25
19508;BME280;40157;42.566;27.526;2023-03-31T03:48:00;100994.97;;;5.36;59.44
19508;BME280;40157;42.566;27.526;2023-03-31T03:50:02;100976.97;;;5.20;59.57
19508;BME280;40157;42.566;27.526;2023-03-31T03:52:03;100967.97;;;5.12;60.07
19508;BME280;40157;42.566;27.526;2023-03-31T03:54:03;100978.97;;;5.06;60.65
19508;BME280;40157;42.566;27.526;2023-03-31T03:56:04;100977.13;;;5.04;61.33
19508;BME280;40157;42.566;27.526;2023-03-31T03:58:05;100985.19;;;5.10;62.50
19508;BME280;40157;42.566;27.526;2023-03-31T04:00:06;100964.81;;;4.99;64.23
19508;BME280;40157;42.566;27.526;2023-03-31T04:02:11;100965.97;;;5.06;66.69
19508;BME280;40157;42.566;27.526;2023-03-31T04:04:11;100964.16;;;5.04;67.98
19508;BME280;40157;42.566;27.526;2023-03-31T04:06:12;100973.16;;;5.12;68.54
19508;BME280;40157;42.566;27.526;2023-03-31T04:08:12;100967.69;;;5.06;69.10
19508;BME280;40157;42.566;27.526;2023-03-31T04:10:13;100982.59;;;5.10;69.38
19508;BME280;40157;42.566;27.526;2023-03-31T04:12:13;100981.91;;;5.14;69.76
19508;BME280;40157;42.566;27.526;2023-03-31T04:14:14;100948.41;;;5.00;70.24
19508;BME280;40157;42.566;27.526;2023-03-31T04:16:15;100950.34;;;5.05;71.09
19508;BME280;40157;42.566;27.526;2023-03-31T04:18:15;100920.00;;;4.84;71.80
19508;BME280;40157;42.566;27.526;2023-03-31T04:20:25;100968.28;;;5.41;75.78
19508;BME280;40157;42.566;27.526;2023-03-31T04:22:30;100961.59;;;5.68;79.10
19508;BME280;40157;42.566;27.526;2023-03-31T04:24:34;100973.66;;;5.89;78.92
19508;BME280;40157;42.566;27.526;2023-03-31T04:26:37;100967.78;;;5.93;77.29
19508;BME280;40157;42.566;27.526;2023-03-31T04:28:42;100980.59;;;6.11;75.32
19508;BME280;40157;42.566;27.526;2023-03-31T04:30:45;100950.78;;;6.01;73.69
19508;BME280;40157;42.566;27.526;2023-03-31T04:32:46;100969.31;;;6.33;73.21
19508;BME280;40157;42.566;27.526;2023-03-31T04:34:49;100983.84;;;6.51;71.77
19508;BME280;40157;42.566;27.526;2023-03-31T04:36:50;100993.31;;;6.48;67.78
19508;BME280;40157;42.566;27.526;2023-03-31T04:38:50;100959.66;;;6.30;63.67
19508;BME280;40157;42.566;27.526;2023-03-31T04:40:53;100994.75;;;6.40;59.96
19508;BME280;40157;42.566;27.526;2023-03-31T04:42:55;100990.88;;;6.06;55.95
19508;BME280;40157;42.566;27.526;2023-03-31T04:44:55;100995.34;;;6.10;54.92
19508;BME280;40157;42.566;27.526;2023-03-31T04:46:56;100981.88;;;5.98;54.92
19508;BME280;40157;42.566;27.526;2023-03-31T04:48:58;100976.00;;;5.83;55.58
19508;BME280;40157;42.566;27.526;2023-03-31T04:50:58;100992.88;;;5.92;55.40
19508;BME280;40157;42.566;27.526;2023-03-31T04:52:59;100970.81;;;5.83;55.57
19508;BME280;40157;42.566;27.526;2023-03-31T04:54:59;100994.69;;;5.72;56.50
19508;BME280;40157;42.566;27.526;2023-03-31T04:57:00;100986.66;;;5.66;57.21
19508;BME280;40157;42.566;27.526;2023-03-31T04:59:00;100968.34;;;5.42;57.85
19508;BME280;40157;42.566;27.526;2023-03-31T05:01:03;100976.53;;;5.30;59.24
19508;BME280;40157;42.566;27.526;2023-03-31T05:03:07;100939.25;;;5.09;59.72
19508;BME280;40157;42.566;27.526;2023-03-31T05:05:08;100967.44;;;5.21;60.27
19508;BME280;40157;42.566;27.526;2023-03-31T05:07:10;100952.09;;;5.06;60.75
19508;BME280;40157;42.566;27.526;2023-03-31T05:09:10;100948.69;;;5.07;61.16
19508;BME280;40157;42.566;27.526;2023-03-31T05:11:11;100956.56;;;5.08;61.42
19508;BME280;40157;42.566;27.526;2023-03-31T05:13:11;100971.63;;;5.17;61.74
19508;BME280;40157;42.566;27.526;2023-03-31T05:15:12;100950.06;;;4.98;62.01
19508;BME280;40157;42.566;27.526;2023-03-31T05:17:12;100951.91;;;5.01;62.48
19508;BME280;40157;42.566;27.526;2023-03-31T05:19:13;100960.16;;;5.12;62.75
19508;BME280;40157;42.566;27.526;2023-03-31T05:21:15;100900.88;;;4.82;63.21
19508;BME280;40157;42.566;27.526;2023-03-31T05:23:16;100957.84;;;5.18;63.22
19508;BME280;40157;42.566;27.526;2023-03-31T05:25:17;100953.06;;;5.29;63.32
19508;BME280;40157;42.566;27.526;2023-03-31T05:27:21;100941.06;;;5.32;63.55
19508;BME280;40157;42.566;27.526;2023-03-31T05:29:23;100950.91;;;5.40;63.76
19508;BME280;40157;42.566;27.526;2023-03-31T05:31:23;100919.13;;;5.26;63.72
19508;BME280;40157;42.566;27.526;2023-03-31T05:33:24;100891.25;;;5.22;63.65
19508;BME280;40157;42.566;27.526;2023-03-31T05:35:24;100935.09;;;5.56;63.45
19508;BME280;40157;42.566;27.526;2023-03-31T05:37:25;100939.72;;;5.63;64.03
19508;BME280;40157;42.566;27.526;2023-03-31T05:39:26;100910.59;;;5.51;64.20
19508;BME280;40157;42.566;27.526;2023-03-31T05:41:32;100930.44;;;5.70;64.78
19508;BME280;40157;42.566;27.526;2023-03-31T05:43:32;100911.56;;;5.75;64.95
19508;BME280;40157;42.566;27.526;2023-03-31T05:45:32;100912.94;;;5.88;64.75
19508;BME280;40157;42.566;27.526;2023-03-31T05:47:33;100915.22;;;6.02;64.76
19508;BME280;40157;42.566;27.526;2023-03-31T05:49:33;100912.72;;;6.05;64.77
19508;BME280;40157;42.566;27.526;2023-03-31T05:51:34;100913.00;;;6.13;65.04
19508;BME280;40157;42.566;27.526;2023-03-31T05:53:34;100911.44;;;6.18;65.29
19508;BME280;40157;42.566;27.526;2023-03-31T05:55:35;100873.13;;;6.14;65.00
19508;BME280;40157;42.566;27.526;2023-03-31T05:57:36;100894.50;;;6.29;65.62
19508;BME280;40157;42.566;27.526;2023-03-31T05:59:36;100901.75;;;6.38;65.74
19508;BME280;40157;42.566;27.526;2023-03-31T06:01:37;100889.41;;;6.32;66.26
19508;BME280;40157;42.566;27.526;2023-03-31T06:03:39;100899.63;;;6.50;66.19
19508;BME280;40157;42.566;27.526;2023-03-31T06:05:49;100897.06;;;6.52;67.08
19508;BME280;40157;42.566;27.526;2023-03-31T06:07:49;100895.50;;;6.57;67.10
19508;BME280;40157;42.566;27.526;2023-03-31T06:09:49;100899.50;;;6.71;67.43
19508;BME280;40157;42.566;27.526;2023-03-31T06:11:50;100903.22;;;6.79;67.65
19508;BME280;40157;42.566;27.526;2023-03-31T06:13:51;100877.16;;;6.79;67.85
19508;BME280;40157;42.566;27.526;2023-03-31T06:15:56;100890.63;;;6.92;68.13
19508;BME280;40157;42.566;27.526;2023-03-31T06:17:57;100861.94;;;6.92;68.16
19508;BME280;40157;42.566;27.526;2023-03-31T06:19:57;100891.50;;;7.18;67.82
19508;BME280;40157;42.566;27.526;2023-03-31T06:21:58;100885.56;;;7.23;67.07
19508;BME280;40157;42.566;27.526;2023-03-31T06:23:59;100927.41;;;7.54;66.07
19508;BME280;40157;42.566;27.526;2023-03-31T06:26:02;100934.78;;;7.67;64.95
19508;BME280;40157;42.566;27.526;2023-03-31T06:28:03;100910.66;;;7.74;64.52
19508;BME280;40157;42.566;27.526;2023-03-31T06:30:06;100908.34;;;7.85;64.09
19508;BME280;40157;42.566;27.526;2023-03-31T06:32:06;100908.50;;;7.90;63.42
19508;BME280;40157;42.566;27.526;2023-03-31T06:34:07;100912.38;;;8.04;63.49
19508;BME280;40157;42.566;27.526;2023-03-31T06:36:08;100912.44;;;8.06;62.63
19508;BME280;40157;42.566;27.526;2023-03-31T06:38:09;100906.63;;;8.14;62.48
19508;BME280;40157;42.566;27.526;2023-03-31T06:40:10;100895.25;;;8.14;61.97
19508;BME280;40157;42.566;27.526;2023-03-31T06:42:11;100900.59;;;8.17;61.73
19508;BME280;40157;42.566;27.526;2023-03-31T06:44:11;100889.78;;;8.35;61.71
19508;BME280;40157;42.566;27.526;2023-03-31T06:46:12;100893.44;;;8.42;60.97
19508;BME280;40157;42.566;27.526;2023-03-31T06:48:13;100896.19;;;8.45;61.28
19508;BME280;40157;42.566;27.526;2023-03-31T06:50:14;100886.66;;;8.47;61.17
19508;BME280;40157;42.566;27.526;2023-03-31T06:52:14;100878.06;;;8.51;60.82
19508;BME280;40157;42.566;27.526;2023-03-31T06:54:15;100908.13;;;8.68;60.96
19508;BME280;40157;42.566;27.526;2023-03-31T06:56:16;100866.94;;;8.58;60.25
19508;BME280;40157;42.566;27.526;2023-03-31T06:58:16;100902.31;;;8.79;60.30
19508;BME280;40157;42.566;27.526;2023-03-31T07:00:17;100884.66;;;8.70;60.15
19508;BME280;40157;42.566;27.526;2023-03-31T07:02:18;100893.63;;;8.80;59.58
19508;BME280;40157;42.566;27.526;2023-03-31T07:04:19;100889.31;;;8.82;59.71
19508;BME280;40157;42.566;27.526;2023-03-31T07:06:19;100896.66;;;8.97;60.12
19508;BME280;40157;42.566;27.526;2023-03-31T07:08:21;100884.47;;;8.97;59.73
19508;BME280;40157;42.566;27.526;2023-03-31T07:10:23;100894.84;;;8.94;60.20
19508;BME280;40157;42.566;27.526;2023-03-31T07:12:24;100892.47;;;9.03;59.87
19508;BME280;40157;42.566;27.526;2023-03-31T07:14:25;100902.44;;;9.18;59.54
19508;BME280;40157;42.566;27.526;2023-03-31T07:16:25;100897.31;;;9.23;59.31
19508;BME280;40157;42.566;27.526;2023-03-31T07:18:26;100877.19;;;9.20;59.30
19508;BME280;40157;42.566;27.526;2023-03-31T07:20:31;100879.88;;;9.23;59.57
19508;BME280;40157;42.566;27.526;2023-03-31T07:22:31;100898.53;;;9.37;59.58
19508;BME280;40157;42.566;27.526;2023-03-31T07:24:32;100890.81;;;9.43;59.98
19508;BME280;40157;42.566;27.526;2023-03-31T07:26:33;100899.66;;;9.49;60.29
19508;BME280;40157;42.566;27.526;2023-03-31T07:28:34;100878.75;;;9.50;59.87
19508;BME280;40157;42.566;27.526;2023-03-31T07:30:34;100860.25;;;9.42;59.95
19508;BME280;40157;42.566;27.526;2023-03-31T07:32:35;100880.63;;;9.54;60.79
19508;BME280;40157;42.566;27.526;2023-03-31T07:34:40;100879.09;;;9.66;60.84
19508;BME280;40157;42.566;27.526;2023-03-31T07:36:41;100867.72;;;9.63;61.01
19508;BME280;40157;42.566;27.526;2023-03-31T07:38:42;100909.41;;;9.94;60.83
19508;BME280;40157;42.566;27.526;2023-03-31T07:40:44;100863.53;;;9.72;60.04
19508;BME280;40157;42.566;27.526;2023-03-31T07:42:45;100913.97;;;10.03;60.06
19508;BME280;40157;42.566;27.526;2023-03-31T07:44:47;100903.50;;;10.04;60.07
19508;BME280;40157;42.566;27.526;2023-03-31T07:46:48;100888.47;;;9.95;59.75
19508;BME280;40157;42.566;27.526;2023-03-31T07:48:49;100903.50;;;10.03;60.16
19508;BME280;40157;42.566;27.526;2023-03-31T07:50:50;100878.03;;;9.97;60.23
19508;BME280;40157;42.566;27.526;2023-03-31T07:52:51;100902.88;;;10.14;59.71
19508;BME280;40157;42.566;27.526;2023-03-31T07:54:51;100895.22;;;10.25;59.56
19508;BME280;40157;42.566;27.526;2023-03-31T07:56:52;100887.44;;;10.30;59.68
19508;BME280;40157;42.566;27.526;2023-03-31T07:58:53;100898.78;;;10.29;59.66
19508;BME280;40157;42.566;27.526;2023-03-31T08:00:53;100899.88;;;10.39;59.51
19508;BME280;40157;42.566;27.526;2023-03-31T08:02:54;100892.03;;;10.40;59.54
19508;BME280;40157;42.566;27.526;2023-03-31T08:04:54;100894.66;;;10.40;59.62
19508;BME280;40157;42.566;27.526;2023-03-31T08:06:55;100873.69;;;10.40;59.15
19508;BME280;40157;42.566;27.526;2023-03-31T08:08:57;100896.69;;;10.55;59.41
19508;BME280;40157;42.566;27.526;2023-03-31T08:10:57;100891.50;;;10.57;59.57
19508;BME280;40157;42.566;27.526;2023-03-31T08:12:58;100893.34;;;10.62;59.67
19508;BME280;40157;42.566;27.526;2023-03-31T08:14:58;100868.84;;;10.60;59.59
19508;BME280;40157;42.566;27.526;2023-03-31T08:16:59;100882.03;;;10.65;60.27
19508;BME280;40157;42.566;27.526;2023-03-31T08:18:59;100851.06;;;10.45;60.49
19508;BME280;40157;42.566;27.526;2023-03-31T08:21:01;100867.09;;;10.59;60.45
19508;BME280;40157;42.566;27.526;2023-03-31T08:23:01;100850.94;;;10.36;61.10
19508;BME280;40157;42.566;27.526;2023-03-31T08:25:02;100867.84;;;10.53;62.32
19508;BME280;40157;42.566;27.526;2023-03-31T08:27:03;100881.19;;;10.66;64.45
19508;BME280;40157;42.566;27.526;2023-03-31T08:29:03;100859.19;;;10.58;66.77
19508;BME280;40157;42.566;27.526;2023-03-31T08:31:05;100872.25;;;10.56;68.55
19508;BME280;40157;42.566;27.526;2023-03-31T08:33:06;100879.91;;;10.45;69.22
19508;BME280;40157;42.566;27.526;2023-03-31T08:35:07;100874.44;;;10.33;70.42
19508;BME280;40157;42.566;27.526;2023-03-31T08:37:09;100831.19;;;10.11;70.56
19508;BME280;40157;42.566;27.526;2023-03-31T08:39:09;100875.38;;;10.36;71.29
19508;BME280;40157;42.566;27.526;2023-03-31T08:43:29;100874.13;;;10.17;72.30
19508;BME280;40157;42.566;27.526;2023-03-31T08:45:37;100882.63;;;10.07;72.38
19508;BME280;40157;42.566;27.526;2023-03-31T08:47:39;100879.78;;;9.96;73.31
19508;BME280;40157;42.566;27.526;2023-03-31T08:49:46;100850.88;;;9.92;73.83
19508;BME280;40157;42.566;27.526;2023-03-31T08:51:50;100854.53;;;10.00;74.40
19508;BME280;40157;42.566;27.526;2023-03-31T08:53:59;100846.50;;;9.92;75.28
19508;BME280;40157;42.566;27.526;2023-03-31T08:56:06;100845.69;;;9.95;76.14
19508;BME280;40157;42.566;27.526;2023-03-31T08:58:21;100825.47;;;9.86;75.63
19508;BME280;40157;42.566;27.526;2023-03-31T09:00:34;100831.63;;;9.90;75.57
19508;BME280;40157;42.566;27.526;2023-03-31T09:04:59;100832.31;;;9.79;75.06
19508;BME280;40157;42.566;27.526;2023-03-31T09:11:53;100834.38;;;9.96;75.51
19508;BME280;40157;42.566;27.526;2023-03-31T09:18:27;100821.03;;;9.84;76.51
19508;BME280;40157;42.566;27.526;2023-03-31T09:20:33;100811.47;;;9.86;77.10
19508;BME280;40157;42.566;27.526;2023-03-31T09:22:40;100803.38;;;9.73;77.95
19508;BME280;40157;42.566;27.526;2023-03-31T09:27:11;100821.16;;;9.90;77.84
19508;BME280;40157;42.566;27.526;2023-03-31T09:31:42;100815.94;;;9.90;79.02
19508;BME280;40157;42.566;27.526;2023-03-31T09:33:45;100800.22;;;9.90;79.52
19508;BME280;40157;42.566;27.526;2023-03-31T09:35:45;100762.34;;;9.74;80.08
19508;BME280;40157;42.566;27.526;2023-03-31T09:37:47;100793.31;;;9.95;80.27
19508;BME280;40157;42.566;27.526;2023-03-31T09:39:48;100799.59;;;10.03;80.42
19508;BME280;40157;42.566;27.526;2023-03-31T09:41:50;100801.19;;;9.95;80.57
19508;BME280;40157;42.566;27.526;2023-03-31T09:43:51;100784.63;;;9.96;81.02
19508;BME280;40157;42.566;27.526;2023-03-31T09:45:52;100793.50;;;10.04;81.08
19508;BME280;40157;42.566;27.526;2023-03-31T09:47:56;100783.06;;;10.07;80.97
19508;BME280;40157;42.566;27.526;2023-03-31T09:49:58;100725.88;;;9.83;81.51
19508;BME280;40157;42.566;27.526;2023-03-31T09:52:11;100782.50;;;10.24;81.93
19508;BME280;40157;42.566;27.526;2023-03-31T09:54:30;100767.69;;;10.24;82.11
19508;BME280;40157;42.566;27.526;2023-03-31T09:56:46;100777.38;;;10.30;81.24
19508;BME280;40157;42.566;27.526;2023-03-31T09:58:47;100773.94;;;10.31;80.74
19508;BME280;40157;42.566;27.526;2023-03-31T10:00:59;100780.00;;;10.30;80.68
19508;BME280;40157;42.566;27.526;2023-03-31T10:03:03;100779.06;;;10.25;80.04
19508;BME280;40157;42.566;27.526;2023-03-31T10:05:23;100758.94;;;10.24;79.37
19508;BME280;40157;42.566;27.526;2023-03-31T10:07:25;100772.31;;;10.36;79.48
19508;BME280;40157;42.566;27.526;2023-03-31T10:09:30;100729.97;;;10.14;78.84
19508;BME280;40157;42.566;27.526;2023-03-31T10:11:32;100718.50;;;10.08;78.46
19508;BME280;40157;42.566;27.526;2023-03-31T10:15:41;100755.72;;;10.37;77.48
19508;BME280;40157;42.566;27.526;2023-03-31T10:17:43;100756.59;;;10.39;77.58
19508;BME280;40157;42.566;27.526;2023-03-31T10:19:57;100738.19;;;10.33;77.63
19508;BME280;40157;42.566;27.526;2023-03-31T10:22:03;100757.59;;;10.44;77.11
19508;BME280;40157;42.566;27.526;2023-03-31T10:24:08;100759.47;;;10.51;77.46
19508;BME280;40157;42.566;27.526;2023-03-31T10:26:13;100764.66;;;10.48;77.38
19508;BME280;40157;42.566;27.526;2023-03-31T10:28:18;100752.28;;;10.40;77.16
19508;BME280;40157;42.566;27.526;2023-03-31T10:30:27;100756.84;;;10.51;78.34
19508;BME280;40157;42.566;27.526;2023-03-31T10:32:30;100761.25;;;10.55;78.22
19508;BME280;40157;42.566;27.526;2023-03-31T10:34:32;100759.34;;;10.45;78.03
19508;BME280;40157;42.566;27.526;2023-03-31T10:36:33;100761.22;;;10.52;78.77
19508;BME280;40157;42.566;27.526;2023-03-31T10:38:38;100756.19;;;10.65;79.12
19508;BME280;40157;42.566;27.526;2023-03-31T10:40:51;100747.59;;;10.75;79.40
19508;BME280;40157;42.566;27.526;2023-03-31T10:43:19;100754.41;;;10.64;78.17
19508;BME280;40157;42.566;27.526;2023-03-31T10:45:28;100740.47;;;10.66;78.07
19508;BME280;40157;42.566;27.526;2023-03-31T10:47:32;100731.75;;;10.66;77.33
19508;BME280;40157;42.566;27.526;2023-03-31T10:49:37;100736.97;;;10.66;76.96
19508;BME280;40157;42.566;27.526;2023-03-31T10:51:57;100721.31;;;10.72;76.91
19508;BME280;40157;42.566;27.526;2023-03-31T10:54:00;100717.81;;;10.70;77.54
19508;BME280;40157;42.566;27.526;2023-03-31T10:56:31;100703.91;;;10.77;77.74
19508;BME280;40157;42.566;27.526;2023-03-31T11:00:56;100690.00;;;10.81;77.80
19508;BME280;40157;42.566;27.526;2023-03-31T11:05:34;100667.28;;;10.82;77.74
19508;BME280;40157;42.566;27.526;2023-03-31T11:14:43;100673.56;;;10.93;78.66
19508;BME280;40157;42.566;27.526;2023-03-31T11:19:32;100651.72;;;10.92;78.28
19508;BME280;40157;42.566;27.526;2023-03-31T11:26:02;100644.84;;;11.05;77.85
19508;BME280;40157;42.566;27.526;2023-03-31T11:41:01;100615.59;;;11.45;76.42
19508;BME280;40157;42.566;27.526;2023-03-31T11:45:17;100591.16;;;11.52;76.77
19508;BME280;40157;42.566;27.526;2023-03-31T11:47:21;100588.59;;;11.58;76.74
19508;BME280;40157;42.566;27.526;2023-03-31T11:49:31;100582.53;;;11.62;76.72
19508;BME280;40157;42.566;27.526;2023-03-31T11:51:59;100577.41;;;11.78;77.03
19508;BME280;40157;42.566;27.526;2023-03-31T11:54:03;100581.97;;;11.94;76.86
19508;BME280;40157;42.566;27.526;2023-03-31T11:56:11;100598.72;;;12.12;76.68
19508;BME280;40157;42.566;27.526;2023-03-31T11:58:20;100609.34;;;12.27;76.58
19508;BME280;40157;42.566;27.526;2023-03-31T12:00:26;100598.94;;;12.43;76.21
19508;BME280;40157;42.566;27.526;2023-03-31T12:02:47;100612.16;;;12.53;73.74
19508;BME280;40157;42.566;27.526;2023-03-31T12:04:54;100606.97;;;12.63;73.50
19508;BME280;40157;42.566;27.526;2023-03-31T12:07:02;100609.63;;;12.70;72.21
19508;BME280;40157;42.566;27.526;2023-03-31T12:09:42;100607.03;;;12.75;71.57
19508;BME280;40157;42.566;27.526;2023-03-31T12:11:50;100608.00;;;12.92;70.94
19508;BME280;40157;42.566;27.526;2023-03-31T12:14:05;100590.47;;;13.02;71.05
19508;BME280;40157;42.566;27.526;2023-03-31T12:16:53;100599.31;;;13.20;71.15
19508;BME280;40157;42.566;27.526;2023-03-31T12:18:48;100595.88;;;13.35;69.76
19508;BME280;40157;42.566;27.526;2023-03-31T12:20:57;100597.69;;;13.53;68.84
19508;BME280;40157;42.566;27.526;2023-03-31T12:23:02;100594.19;;;13.66;68.31
19508;BME280;40157;42.566;27.526;2023-03-31T12:25:04;100593.34;;;13.79;67.66